Time;durP1;ratioP1;P1;durP2;ratioP2;P2;SDS_P1;SDS_P2;PMS_P1;PMS_P2;Temp;Humidity;BMP_temperature;BMP_pressure;BME280_temperature;BME280_humidity;BME280_pressure;Samples;Min_cycle;Max_cycle;Signal;HPM_P1;HPM_P2
2021/08/11 00:00:52;;;;;;;9.00;4.93;;;22.50;99.90;;;;;;4984311;28;20483;-66
2021/08/11 00:03:18;;;;;;;5.17;4.67;;;22.50;99.90;;;;;;4984607;28;20205;-66
2021/08/11 00:05:43;;;;;;;8.67;4.90;;;22.50;99.90;;;;;;4986368;28;20210;-66
2021/08/11 00:08:09;;;;;;;8.13;4.50;;;22.60;99.90;;;;;;4984025;28;20201;-66
2021/08/11 00:10:35;;;;;;;5.13;4.63;;;22.50;99.90;;;;;;4986564;28;20243;-65
2021/08/11 00:13:03;;;;;;;5.83;4.60;;;22.60;99.90;;;;;;4981640;28;20247;-65
2021/08/11 00:15:29;;;;;;;5.40;4.90;;;22.50;99.90;;;;;;4985661;28;20259;-65
2021/08/11 00:17:54;;;;;;;6.53;5.47;;;22.40;99.90;;;;;;4985817;28;20516;-65
2021/08/11 00:20:22;;;;;;;6.33;5.20;;;22.20;99.90;;;;;;4983457;28;20616;-66
2021/08/11 00:22:47;;;;;;;5.43;4.70;;;22.30;99.90;;;;;;4984098;28;20201;-65
2021/08/11 00:25:13;;;;;;;7.47;5.70;;;22.40;99.90;;;;;;4987432;28;21008;-65
2021/08/11 00:27:39;;;;;;;10.40;5.80;;;22.40;99.90;;;;;;4984793;28;20196;-66
2021/08/11 00:30:06;;;;;;;6.20;5.40;;;22.10;99.90;;;;;;4985552;28;20280;-67
2021/08/11 00:32:32;;;;;;;5.97;4.90;;;21.70;99.90;;;;;;4984965;28;20495;-66
2021/08/11 00:34:58;;;;;;;6.90;5.20;;;21.80;99.90;;;;;;4984445;28;20464;-65
2021/08/11 00:37:24;;;;;;;6.00;5.07;;;21.80;99.90;;;;;;4986139;28;20792;-65
2021/08/11 00:39:50;;;;;;;6.13;4.83;;;21.90;99.90;;;;;;4982322;28;20437;-66
2021/08/11 00:42:23;;;;;;;8.70;5.70;;;21.80;99.90;;;;;;4982650;28;20194;-66
2021/08/11 00:44:55;;;;;;;5.60;4.60;;;21.90;99.90;;;;;;4987197;28;20201;-66
2021/08/11 00:47:28;;;;;;;5.10;4.60;;;22.00;99.90;;;;;;4982655;28;20498;-66
2021/08/11 00:49:54;;;;;;;5.17;4.73;;;21.90;99.90;;;;;;4979471;28;20832;-65
2021/08/11 00:52:19;;;;;;;6.70;4.90;;;22.10;99.90;;;;;;4987174;28;20429;-65
2021/08/11 00:54:45;;;;;;;8.30;4.80;;;22.30;99.90;;;;;;4985078;28;20226;-66
2021/08/11 00:57:16;;;;;;;6.73;4.57;;;22.10;99.90;;;;;;4985023;28;20288;-65
2021/08/11 00:59:43;;;;;;;7.90;5.40;;;22.20;99.90;;;;;;4985268;28;20414;-65
2021/08/11 01:02:09;;;;;;;8.33;6.10;;;22.00;99.90;;;;;;4982172;28;20437;-65
2021/08/11 01:04:37;;;;;;;6.90;5.30;;;22.10;99.90;;;;;;4986709;28;20941;-65
2021/08/11 01:07:04;;;;;;;5.83;4.87;;;22.10;99.90;;;;;;4983431;28;20957;-65
2021/08/11 01:09:31;;;;;;;6.43;4.67;;;21.70;99.90;;;;;;4988170;28;20426;-66
2021/08/11 01:12:00;;;;;;;7.03;5.30;;;21.80;99.90;;;;;;4988807;28;20712;-66
2021/08/11 01:14:27;;;;;;;5.30;4.63;;;21.80;99.90;;;;;;4986377;28;20496;-66
2021/08/11 01:16:55;;;;;;;5.30;4.80;;;21.70;99.90;;;;;;4985802;28;20557;-65
2021/08/11 01:19:21;;;;;;;5.60;4.70;;;21.50;99.90;;;;;;4989761;28;20416;-67
2021/08/11 01:22:05;;;;;;;6.13;5.37;;;21.50;99.90;;;;;;4985890;28;20888;-65
2021/08/11 01:24:42;;;;;;;7.97;5.07;;;21.50;99.90;;;;;;4986146;28;20252;-66
2021/08/11 01:27:33;;;;;;;6.47;5.03;;;21.30;99.90;;;;;;4988773;28;20917;-65
2021/08/11 01:30:05;;;;;;;12.80;5.20;;;21.00;99.90;;;;;;4999075;28;20506;-66
2021/08/11 01:32:56;;;;;;;6.60;5.47;;;20.60;99.90;;;;;;4986662;28;20926;-65
2021/08/11 01:35:28;;;;;;;5.73;5.13;;;20.40;99.90;;;;;;4989178;28;20526;-65
2021/08/11 01:37:55;;;;;;;6.47;5.10;;;20.50;99.90;;;;;;4985365;28;20441;-65
2021/08/11 01:40:29;;;;;;;8.03;5.30;;;20.50;99.90;;;;;;4986824;28;20452;-65
2021/08/11 01:42:58;;;;;;;10.57;5.00;;;20.80;99.90;;;;;;4988806;28;20567;-66
2021/08/11 01:45:33;;;;;;;7.13;4.77;;;20.90;99.90;;;;;;4984689;28;20472;-66
2021/08/11 01:48:05;;;;;;;6.23;5.10;;;21.10;99.90;;;;;;4984824;28;20448;-66
2021/08/11 01:50:34;;;;;;;9.53;4.80;;;20.90;99.90;;;;;;4988352;28;20799;-66
2021/08/11 01:53:01;;;;;;;6.00;5.07;;;21.20;99.90;;;;;;4986683;28;21037;-66
2021/08/11 01:55:27;;;;;;;9.73;5.07;;;21.20;99.90;;;;;;4987956;28;20472;-65
2021/08/11 01:57:54;;;;;;;5.37;4.60;;;21.10;99.90;;;;;;4986606;28;20470;-66
2021/08/11 02:00:22;;;;;;;7.60;4.57;;;21.10;99.90;;;;;;4987599;28;20284;-65
2021/08/11 02:02:49;;;;;;;8.27;5.70;;;21.20;99.90;;;;;;4986953;28;20545;-65
2021/08/11 02:05:18;;;;;;;7.00;5.07;;;21.40;99.90;;;;;;4983516;28;20472;-65
2021/08/11 02:07:44;;;;;;;5.63;5.00;;;21.40;99.90;;;;;;4987839;28;20442;-65
2021/08/11 02:10:13;;;;;;;7.63;5.33;;;21.40;99.90;;;;;;4985111;28;20441;-65
2021/08/11 02:12:39;;;;;;;5.83;5.20;;;21.30;99.90;;;;;;4986619;28;20553;-65
2021/08/11 02:15:07;;;;;;;7.77;4.60;;;21.40;99.90;;;;;;4989744;28;20456;-66
2021/08/11 02:17:32;;;;;;;7.90;5.93;;;21.20;99.90;;;;;;4986983;28;20440;-65
2021/08/11 02:19:58;;;;;;;6.93;4.83;;;21.10;99.90;;;;;;4985415;28;20429;-65
2021/08/11 02:22:24;;;;;;;6.60;4.77;;;21.10;99.90;;;;;;4988886;28;20261;-65
2021/08/11 02:24:50;;;;;;;8.57;4.83;;;21.20;99.90;;;;;;4986839;28;20702;-65
2021/08/11 02:27:19;;;;;;;7.23;4.97;;;21.10;99.90;;;;;;4985825;28;20249;-65
2021/08/11 02:29:56;;;;;;;5.93;4.80;;;21.10;99.90;;;;;;4987972;28;20178;-65
2021/08/11 02:32:38;;;;;;;6.00;4.60;;;20.90;99.90;;;;;;4986905;28;20436;-66
2021/08/11 02:35:10;;;;;;;8.10;5.33;;;21.00;99.90;;;;;;4988397;28;20456;-66
2021/08/11 02:37:38;;;;;;;5.70;5.20;;;21.00;99.90;;;;;;4989127;28;20417;-66
2021/08/11 02:40:39;;;;;;;6.23;4.93;;;21.20;99.90;;;;;;4984210;28;20433;-66
2021/08/11 02:43:22;;;;;;;5.50;4.90;;;20.90;99.90;;;;;;4961137;28;20441;-66
2021/08/11 02:45:53;;;;;;;6.33;5.33;;;21.00;99.90;;;;;;4988595;28;20480;-66
2021/08/11 02:48:21;;;;;;;7.93;5.00;;;21.20;99.90;;;;;;4984200;28;20444;-66
2021/08/11 02:50:49;;;;;;;5.53;5.03;;;21.30;99.90;;;;;;4987747;28;20445;-66
2021/08/11 02:53:25;;;;;;;5.20;4.70;;;21.20;99.90;;;;;;4988458;28;20464;-66
2021/08/11 02:55:51;;;;;;;4.87;4.27;;;21.10;99.90;;;;;;4986973;28;20995;-66
2021/08/11 02:58:21;;;;;;;5.10;4.60;;;21.10;99.90;;;;;;4982007;28;21012;-65
2021/08/11 03:00:49;;;;;;;4.83;4.33;;;21.10;99.90;;;;;;4985676;28;20950;-65
2021/08/11 03:03:16;;;;;;;4.93;4.43;;;21.00;99.90;;;;;;4983768;28;20441;-66
2021/08/11 03:05:47;;;;;;;7.97;4.53;;;20.90;99.90;;;;;;4985362;28;20557;-66
2021/08/11 03:08:15;;;;;;;4.33;3.93;;;21.00;99.90;;;;;;4987383;28;20433;-66
2021/08/11 03:10:41;;;;;;;7.13;4.27;;;21.00;99.90;;;;;;4985106;28;20479;-67
2021/08/11 03:13:10;;;;;;;6.10;4.40;;;21.10;99.90;;;;;;4988455;28;20819;-65
2021/08/11 03:15:36;;;;;;;4.77;4.30;;;21.00;99.90;;;;;;4984330;28;20225;-66
2021/08/11 03:18:02;;;;;;;4.93;4.07;;;21.00;99.90;;;;;;4981486;28;20452;-65
2021/08/11 03:20:30;;;;;;;5.57;4.97;;;21.10;99.90;;;;;;4985992;28;20437;-65
2021/08/11 03:22:55;;;;;;;4.77;4.30;;;21.20;99.90;;;;;;4985503;28;20583;-66
2021/08/11 03:25:21;;;;;;;5.93;4.70;;;21.20;99.90;;;;;;4985050;28;20488;-65
2021/08/11 03:27:47;;;;;;;9.40;5.00;;;21.10;99.90;;;;;;4988259;28;20182;-65
2021/08/11 03:30:13;;;;;;;5.30;4.80;;;21.20;99.90;;;;;;4983703;28;20220;-66
2021/08/11 03:32:39;;;;;;;10.03;5.20;;;20.90;99.90;;;;;;4985016;28;20181;-65
2021/08/11 03:35:05;;;;;;;5.00;4.33;;;20.80;99.90;;;;;;4986590;28;20792;-66
2021/08/11 03:37:31;;;;;;;5.70;4.60;;;21.10;99.90;;;;;;4985915;28;20186;-66
2021/08/11 03:39:58;;;;;;;6.03;4.20;;;21.10;99.90;;;;;;4985628;28;20516;-66
2021/08/11 03:42:24;;;;;;;6.10;4.70;;;21.10;99.90;;;;;;4984436;28;20655;-66
2021/08/11 03:44:50;;;;;;;5.13;4.10;;;20.90;99.90;;;;;;4984156;28;20471;-66
2021/08/11 03:47:15;;;;;;;5.13;4.37;;;21.00;99.90;;;;;;4987363;28;20433;-66
2021/08/11 03:49:41;;;;;;;5.53;4.37;;;20.80;99.90;;;;;;4987255;28;20231;-66
2021/08/11 03:52:07;;;;;;;8.03;4.60;;;20.70;99.90;;;;;;4982338;28;20667;-66
2021/08/11 03:54:33;;;;;;;6.80;4.50;;;20.80;99.90;;;;;;4987641;28;20210;-66
2021/08/11 03:56:59;;;;;;;6.10;4.43;;;20.90;99.90;;;;;;4985553;28;20181;-66
2021/08/11 03:59:24;;;;;;;9.03;4.60;;;21.00;99.90;;;;;;4983685;28;20895;-66
2021/08/11 04:01:52;;;;;;;5.10;4.60;;;20.90;99.90;;;;;;4985298;28;20194;-67
2021/08/11 04:04:17;;;;;;;8.20;4.03;;;20.90;99.90;;;;;;4982744;28;20682;-67
2021/08/11 04:06:45;;;;;;;5.47;4.67;;;20.30;99.90;;;;;;4985745;28;20480;-67
2021/08/11 04:09:11;;;;;;;6.53;5.00;;;20.10;99.90;;;;;;4984614;28;20204;-66
2021/08/11 04:11:36;;;;;;;5.03;4.20;;;20.30;99.90;;;;;;4983430;28;20436;-66
2021/08/11 04:14:02;;;;;;;6.93;4.80;;;20.60;99.90;;;;;;4986615;28;20221;-66
2021/08/11 04:16:28;;;;;;;4.43;3.83;;;20.70;99.90;;;;;;4983211;28;20193;-65
2021/08/11 04:18:53;;;;;;;4.70;4.20;;;20.70;99.90;;;;;;4982553;28;20205;-66
2021/08/11 04:21:19;;;;;;;6.40;4.40;;;20.40;99.90;;;;;;4986413;28;20264;-65
2021/08/11 04:23:44;;;;;;;5.90;5.30;;;20.00;99.90;;;;;;4980324;28;20284;-66
2021/08/11 04:26:10;;;;;;;10.17;4.60;;;20.10;99.90;;;;;;4983667;28;20216;-65
2021/08/11 04:28:38;;;;;;;5.20;4.70;;;20.30;99.90;;;;;;4986969;28;20190;-65
2021/08/11 04:31:04;;;;;;;10.33;4.73;;;20.20;99.90;;;;;;4983377;28;20562;-66
2021/08/11 04:33:29;;;;;;;7.80;5.20;;;20.30;99.90;;;;;;4985195;28;20455;-66
2021/08/11 04:35:55;;;;;;;9.93;4.23;;;20.30;99.90;;;;;;4982260;28;20282;-66
2021/08/11 04:38:21;;;;;;;5.13;4.63;;;20.40;99.90;;;;;;4980878;28;20212;-66
2021/08/11 04:40:46;;;;;;;8.40;5.03;;;20.40;99.90;;;;;;4985042;28;20556;-66
2021/08/11 04:43:12;;;;;;;5.73;4.77;;;20.30;99.90;;;;;;4986685;28;20299;-66
2021/08/11 04:45:39;;;;;;;8.23;6.20;;;20.10;99.90;;;;;;4985318;28;20639;-66
2021/08/11 04:48:05;;;;;;;6.43;4.97;;;19.90;99.90;;;;;;4988252;28;20293;-66
2021/08/11 04:50:31;;;;;;;6.53;4.80;;;20.20;99.90;;;;;;4988071;28;21189;-66
2021/08/11 04:52:57;;;;;;;7.40;4.90;;;20.20;99.90;;;;;;4987455;28;20198;-67
2021/08/11 04:55:22;;;;;;;5.27;4.87;;;20.10;99.90;;;;;;4986134;28;20468;-67
2021/08/11 04:57:48;;;;;;;5.93;4.70;;;20.40;99.90;;;;;;4987266;28;20746;-66
2021/08/11 05:00:14;;;;;;;6.03;4.80;;;20.40;99.90;;;;;;4990599;28;20626;-66
2021/08/11 05:02:40;;;;;;;12.33;5.43;;;20.10;99.90;;;;;;4985009;28;20281;-65
2021/08/11 05:05:07;;;;;;;7.40;4.80;;;19.90;99.90;;;;;;4981854;28;20564;-66
2021/08/11 05:07:33;;;;;;;5.07;4.57;;;20.00;99.90;;;;;;4988777;28;20208;-66
2021/08/11 05:09:58;;;;;;;8.37;5.27;;;20.10;99.90;;;;;;4985861;28;20983;-66
2021/08/11 05:12:24;;;;;;;4.70;4.20;;;20.10;99.90;;;;;;4987530;28;20186;-67
2021/08/11 05:14:53;;;;;;;8.60;5.67;;;20.00;99.90;;;;;;4989005;28;20256;-65
2021/08/11 05:17:21;;;;;;;6.33;5.50;;;19.90;99.90;;;;;;4986374;28;20201;-65
2021/08/11 05:19:48;;;;;;;7.93;5.10;;;19.90;99.90;;;;;;4988510;28;20451;-66
2021/08/11 05:22:15;;;;;;;6.70;5.87;;;20.00;99.90;;;;;;4981134;28;20666;-67
2021/08/11 05:24:46;;;;;;;5.97;5.37;;;20.20;99.90;;;;;;4988531;28;20452;-66
2021/08/11 05:27:13;;;;;;;6.17;5.37;;;20.40;99.90;;;;;;4981472;28;20499;-66
2021/08/11 05:29:42;;;;;;;7.87;5.60;;;20.40;99.90;;;;;;4983365;28;20463;-66
2021/08/11 05:32:07;;;;;;;6.13;5.20;;;20.60;99.90;;;;;;4987131;28;20433;-66
2021/08/11 05:34:33;;;;;;;16.53;6.73;;;20.40;99.90;;;;;;4987469;28;20531;-67
2021/08/11 05:36:59;;;;;;;7.17;6.27;;;20.10;99.90;;;;;;4986236;28;20252;-66
2021/08/11 05:39:24;;;;;;;9.03;6.40;;;20.30;99.90;;;;;;4986779;28;20649;-65
2021/08/11 05:41:50;;;;;;;9.27;6.27;;;20.60;99.90;;;;;;4987015;28;20247;-65
2021/08/11 05:44:19;;;;;;;7.23;5.43;;;20.90;99.90;;;;;;4984762;28;20221;-66
2021/08/11 05:46:45;;;;;;;7.13;5.60;;;21.00;99.90;;;;;;4999093;28;20652;-68
2021/08/11 05:49:14;;;;;;;8.93;5.60;;;20.70;99.90;;;;;;4985418;28;20457;-66
2021/08/11 05:51:40;;;;;;;7.83;5.87;;;20.50;99.90;;;;;;4988265;28;20658;-66
2021/08/11 05:54:06;;;;;;;6.83;5.87;;;20.60;99.90;;;;;;4983230;28;20465;-68
2021/08/11 05:56:33;;;;;;;8.53;6.10;;;20.70;99.90;;;;;;4981447;28;20588;-68
2021/08/11 05:58:58;;;;;;;9.70;5.80;;;20.70;99.90;;;;;;4989093;28;20186;-67
2021/08/11 06:01:24;;;;;;;9.57;5.80;;;20.80;99.90;;;;;;4987861;28;20440;-67
2021/08/11 06:03:54;;;;;;;10.43;5.53;;;20.70;99.90;;;;;;4986916;28;20214;-67
2021/08/11 06:06:20;;;;;;;7.87;5.40;;;20.40;99.90;;;;;;4986449;28;20460;-67
2021/08/11 06:08:46;;;;;;;5.93;5.33;;;20.50;99.90;;;;;;4984000;28;20447;-68
2021/08/11 06:11:12;;;;;;;5.97;4.60;;;20.60;99.90;;;;;;4985006;28;20255;-68
2021/08/11 06:13:38;;;;;;;7.03;6.00;;;20.70;99.90;;;;;;4986705;28;20450;-68
2021/08/11 06:16:04;;;;;;;6.00;5.47;;;20.60;99.90;;;;;;4986304;28;20194;-68
2021/08/11 06:18:30;;;;;;;6.80;5.70;;;20.70;99.90;;;;;;4985867;28;20288;-67
2021/08/11 06:20:55;;;;;;;6.43;5.50;;;20.90;99.90;;;;;;4985148;28;20421;-67
2021/08/11 06:23:23;;;;;;;6.37;5.67;;;21.00;99.90;;;;;;4986741;28;20325;-67
2021/08/11 06:25:49;;;;;;;7.37;5.53;;;21.00;99.90;;;;;;4989472;28;20736;-67
2021/08/11 06:28:15;;;;;;;7.60;6.77;;;20.70;99.90;;;;;;4981618;28;20479;-68
2021/08/11 06:30:41;;;;;;;9.90;5.47;;;21.00;99.90;;;;;;4985878;28;20546;-66
2021/08/11 06:33:07;;;;;;;8.27;6.33;;;21.00;99.90;;;;;;4988210;28;20264;-66
2021/08/11 06:35:33;;;;;;;7.33;5.50;;;21.10;99.90;;;;;;4983564;28;20562;-68
2021/08/11 06:37:58;;;;;;;6.67;5.97;;;21.10;99.90;;;;;;4982826;28;20491;-67
2021/08/11 06:40:25;;;;;;;9.10;5.70;;;21.30;99.90;;;;;;4988668;28;20225;-67
2021/08/11 06:42:51;;;;;;;9.70;5.23;;;21.30;99.90;;;;;;4983214;28;20429;-67
2021/08/11 06:45:17;;;;;;;9.30;5.77;;;21.30;99.90;;;;;;4969274;28;20492;-67
2021/08/11 06:47:44;;;;;;;12.10;5.67;;;21.10;99.90;;;;;;4981895;28;20433;-67
2021/08/11 06:50:11;;;;;;;10.97;6.53;;;21.10;99.90;;;;;;4982678;28;20774;-66
2021/08/11 06:52:37;;;;;;;7.17;6.27;;;20.80;99.90;;;;;;4986110;28;20666;-66
2021/08/11 06:55:07;;;;;;;8.37;7.30;;;21.00;99.90;;;;;;4985171;28;20453;-66
2021/08/11 06:57:35;;;;;;;7.03;5.93;;;21.10;99.90;;;;;;4983981;28;20437;-67
2021/08/11 07:00:02;;;;;;;8.17;5.90;;;21.00;99.90;;;;;;4985900;28;20517;-66
2021/08/11 07:02:28;;;;;;;8.57;6.17;;;21.00;99.90;;;;;;4984983;28;20499;-67
2021/08/11 07:05:00;;;;;;;7.70;6.27;;;21.10;99.90;;;;;;4985978;28;20484;-66
2021/08/11 07:07:29;;;;;;;7.70;5.90;;;21.30;99.90;;;;;;4982268;28;20529;-66
2021/08/11 07:09:55;;;;;;;5.97;5.37;;;21.40;99.90;;;;;;4983838;28;20524;-67
2021/08/11 07:12:21;;;;;;;8.97;6.13;;;21.40;99.90;;;;;;4985978;28;20483;-67
2021/08/11 07:14:49;;;;;;;9.23;5.93;;;21.60;99.90;;;;;;4982166;28;20875;-67
2021/08/11 07:17:16;;;;;;;7.60;6.10;;;21.60;99.90;;;;;;4985177;28;20205;-67
2021/08/11 07:19:41;;;;;;;9.10;7.47;;;21.60;99.90;;;;;;4986011;28;20432;-66
2021/08/11 07:22:09;;;;;;;7.07;5.60;;;21.80;99.90;;;;;;4983123;28;20433;-67
2021/08/11 07:24:35;;;;;;;6.30;5.70;;;21.90;99.90;;;;;;4985881;28;20649;-67
2021/08/11 07:27:00;;;;;;;8.07;6.57;;;22.00;99.90;;;;;;4984065;28;20433;-66
2021/08/11 07:29:26;;;;;;;23.50;20.50;;;22.00;99.90;;;;;;4984030;28;20305;-66
2021/08/11 07:31:52;;;;;;;10.83;7.80;;;21.90;99.90;;;;;;4987121;28;20662;-65
2021/08/11 07:34:18;;;;;;;8.30;6.37;;;22.00;99.90;;;;;;4984855;28;20214;-65
2021/08/11 07:36:44;;;;;;;7.90;5.73;;;22.00;99.90;;;;;;4984826;28;20204;-71
2021/08/11 07:39:11;;;;;;;13.57;7.50;;;22.20;99.90;;;;;;4987758;28;20444;-66
2021/08/11 07:41:37;;;;;;;7.00;5.87;;;22.30;99.90;;;;;;4985611;28;20918;-65
2021/08/11 07:44:03;;;;;;;9.20;5.20;;;22.40;99.90;;;;;;4986040;28;20465;-67
2021/08/11 07:46:29;;;;;;;10.33;6.43;;;22.50;99.90;;;;;;4984115;28;20561;-65
2021/08/11 07:48:55;;;;;;;10.50;6.20;;;22.50;99.90;;;;;;4984391;28;20200;-65
2021/08/11 07:51:24;;;;;;;10.13;6.70;;;22.50;99.90;;;;;;4985756;28;20190;-65
2021/08/11 07:53:49;;;;;;;7.77;6.20;;;22.60;99.90;;;;;;4985089;28;20456;-67
2021/08/11 07:56:15;;;;;;;7.23;6.53;;;22.60;99.90;;;;;;4985034;28;20455;-72
2021/08/11 07:58:41;;;;;;;7.17;5.67;;;22.50;99.90;;;;;;4985852;28;20197;-72
2021/08/11 08:01:07;;;;;;;9.70;5.47;;;22.70;99.90;;;;;;4985672;28;20657;-72
2021/08/11 08:03:33;;;;;;;9.53;7.57;;;22.90;99.90;;;;;;4984983;28;20548;-71
2021/08/11 08:05:58;;;;;;;11.43;6.50;;;23.00;99.90;;;;;;4970807;28;20220;-67
2021/08/11 08:08:24;;;;;;;8.60;5.20;;;23.20;99.90;;;;;;4983523;28;20547;-67
2021/08/11 08:10:49;;;;;;;6.27;4.73;;;23.20;99.90;;;;;;4984605;28;20199;-67
2021/08/11 08:13:16;;;;;;;31.63;27.30;;;23.30;99.90;;;;;;4984522;28;20718;-67
2021/08/11 08:15:42;;;;;;;10.37;7.10;;;23.20;99.90;;;;;;4983920;28;20244;-68
2021/08/11 08:18:08;;;;;;;7.23;5.33;;;23.20;99.90;;;;;;4985447;28;20528;-67
2021/08/11 08:20:34;;;;;;;6.43;5.10;;;23.30;99.90;;;;;;4984827;28;20202;-67
2021/08/11 08:23:00;;;;;;;6.93;4.33;;;23.50;99.90;;;;;;4984734;28;20300;-68
2021/08/11 08:25:26;;;;;;;5.70;4.60;;;23.40;99.90;;;;;;4986575;28;20571;-66
2021/08/11 08:27:53;;;;;;;7.70;5.60;;;23.40;99.90;;;;;;4982995;28;20189;-67
2021/08/11 08:30:19;;;;;;;6.77;5.07;;;23.40;99.90;;;;;;4985574;28;20287;-67
2021/08/11 08:32:49;;;;;;;8.57;5.40;;;23.50;99.90;;;;;;4986303;28;20972;-67
2021/08/11 08:35:15;;;;;;;5.20;4.70;;;23.70;99.90;;;;;;4980847;28;20472;-67
2021/08/11 08:37:42;;;;;;;6.03;4.80;;;23.70;99.90;;;;;;4985004;28;20433;-67
2021/08/11 08:40:10;;;;;;;6.43;4.63;;;23.80;99.90;;;;;;4985393;28;21184;-66
2021/08/11 08:42:40;;;;;;;7.40;4.77;;;24.00;99.90;;;;;;4982023;28;20535;-68
2021/08/11 08:45:07;;;;;;;8.00;4.80;;;24.00;99.90;;;;;;4984224;28;20489;-67
2021/08/11 08:47:35;;;;;;;5.30;4.63;;;24.00;99.90;;;;;;4982675;28;20441;-67
2021/08/11 08:50:07;;;;;;;6.57;4.87;;;24.10;99.90;;;;;;4952817;28;20945;-67
2021/08/11 08:52:34;;;;;;;5.33;4.70;;;24.20;99.90;;;;;;4985394;28;20467;-68
2021/08/11 08:55:01;;;;;;;7.00;5.10;;;24.20;99.90;;;;;;4967112;28;20507;-67
2021/08/11 08:57:27;;;;;;;12.93;5.10;;;24.10;99.90;;;;;;4983199;28;20480;-66
2021/08/11 08:59:53;;;;;;;5.60;4.63;;;24.10;99.90;;;;;;4982268;28;20448;-67
2021/08/11 09:02:19;;;;;;;5.00;4.60;;;24.20;99.90;;;;;;4982747;28;20895;-67
2021/08/11 09:04:45;;;;;;;5.17;4.67;;;24.20;99.90;;;;;;4984338;28;20845;-67
2021/08/11 09:07:16;;;;;;;5.07;4.53;;;24.20;99.90;;;;;;4980876;28;20193;-66
2021/08/11 09:09:42;;;;;;;7.33;4.60;;;24.30;99.90;;;;;;4980100;28;20949;-66
2021/08/11 09:12:12;;;;;;;5.87;4.80;;;24.30;99.90;;;;;;4982806;28;20437;-65
2021/08/11 09:14:39;;;;;;;5.40;4.20;;;24.40;99.90;;;;;;4982342;28;20583;-66
2021/08/11 09:17:05;;;;;;;4.43;4.03;;;24.50;99.90;;;;;;4981336;28;20433;-66
2021/08/11 09:19:39;;;;;;;5.20;4.70;;;24.70;99.90;;;;;;4985012;28;20996;-66
2021/08/11 09:22:08;;;;;;;5.40;4.90;;;24.80;99.90;;;;;;4982012;28;20523;-65
2021/08/11 09:24:37;;;;;;;6.50;5.40;;;24.90;99.90;;;;;;4956701;28;20449;-66
2021/08/11 09:27:24;;;;;;;6.37;4.53;;;25.00;99.90;;;;;;4984840;28;20429;-66
2021/08/11 09:30:17;;;;;;;4.83;4.37;;;25.00;99.90;;;;;;4985095;28;20503;-66
2021/08/11 09:33:05;;;;;;;6.13;5.10;;;25.10;99.90;;;;;;4984124;28;20453;-66
2021/08/11 09:35:33;;;;;;;4.97;4.47;;;25.30;99.90;;;;;;4988101;28;20455;-65
2021/08/11 09:38:13;;;;;;;6.80;5.00;;;25.40;99.90;;;;;;4987995;28;20464;-66
2021/08/11 09:40:40;;;;;;;4.83;4.30;;;25.40;99.90;;;;;;4983950;28;20751;-65
2021/08/11 09:43:10;;;;;;;5.97;4.57;;;25.50;99.90;;;;;;4989011;28;20418;-65
2021/08/11 09:45:56;;;;;;;6.10;5.10;;;25.50;99.90;;;;;;4985530;28;20476;-65
2021/08/11 09:48:24;;;;;;;6.80;4.47;;;25.60;99.90;;;;;;4986550;28;20441;-65
2021/08/11 09:50:51;;;;;;;4.93;4.07;;;25.60;99.90;;;;;;4989411;28;20429;-65
2021/08/11 09:53:32;;;;;;;7.20;4.60;;;25.60;99.90;;;;;;4986115;28;20454;-65
2021/08/11 09:56:04;;;;;;;5.47;4.97;;;25.70;99.90;;;;;;4984767;28;20460;-65
2021/08/11 09:58:40;;;;;;;4.80;3.80;;;25.80;99.90;;;;;;4987095;28;20441;-68
2021/08/11 10:01:16;;;;;;;6.27;4.83;;;25.80;99.90;;;;;;4984462;28;20432;-68
2021/08/11 10:04:06;;;;;;;6.30;4.90;;;25.80;99.90;;;;;;4985976;28;20944;-67
2021/08/11 10:06:35;;;;;;;7.40;4.23;;;26.00;99.90;;;;;;4982660;28;20478;-67
2021/08/11 10:09:23;;;;;;;5.13;3.97;;;26.20;99.90;;;;;;4986436;28;20437;-68
2021/08/11 10:11:59;;;;;;;5.63;5.03;;;26.40;99.90;;;;;;4984219;28;20520;-65
2021/08/11 10:14:30;;;;;;;5.37;4.50;;;26.60;99.90;;;;;;4983681;28;20504;-65
2021/08/11 10:16:58;;;;;;;6.80;4.33;;;26.60;99.90;;;;;;4986753;28;20417;-65
2021/08/11 10:19:29;;;;;;;4.87;4.37;;;26.70;99.90;;;;;;4984143;28;20436;-64
2021/08/11 10:21:55;;;;;;;6.20;4.63;;;26.60;99.90;;;;;;4968979;28;20468;-65
2021/08/11 10:24:21;;;;;;;4.27;3.87;;;26.50;99.90;;;;;;4985959;28;20461;-65
2021/08/11 10:26:51;;;;;;;9.90;4.63;;;26.40;99.90;;;;;;4988249;28;20209;-65
2021/08/11 10:29:17;;;;;;;6.40;4.23;;;26.60;99.90;;;;;;4987521;28;20440;-64
2021/08/11 10:31:43;;;;;;;4.83;4.33;;;26.80;99.90;;;;;;4986039;28;20492;-64
2021/08/11 10:34:11;;;;;;;5.20;4.30;;;26.50;99.90;;;;;;4985361;28;20477;-64
2021/08/11 10:36:41;;;;;;;5.40;3.87;;;26.60;99.90;;;;;;4987675;28;20472;-64
2021/08/11 10:39:06;;;;;;;4.50;4.10;;;26.70;99.90;;;;;;4983442;28;20441;-65
2021/08/11 10:41:37;;;;;;;6.67;4.50;;;26.70;99.90;;;;;;4987320;28;20927;-65
2021/08/11 10:44:05;;;;;;;4.23;3.83;;;26.60;99.90;;;;;;4985229;28;20212;-64
2021/08/11 10:46:43;;;;;;;4.40;4.00;;;26.50;99.90;;;;;;4986153;28;20557;-65
2021/08/11 10:49:16;;;;;;;4.07;3.67;;;26.20;99.90;;;;;;4983932;28;20444;-65
2021/08/11 10:51:49;;;;;;;6.30;4.37;;;26.20;99.90;;;;;;4987132;28;20608;-64
2021/08/11 10:54:16;;;;;;;4.43;3.73;;;26.20;99.90;;;;;;4985962;28;20453;-65
2021/08/11 10:56:56;;;;;;;6.23;4.00;;;26.20;99.90;;;;;;4986210;28;20490;-65
2021/08/11 10:59:29;;;;;;;9.40;4.37;;;26.20;99.90;;;;;;4983035;28;20449;-65
2021/08/11 11:01:55;;;;;;;8.23;5.03;;;26.00;99.90;;;;;;4985793;28;20441;-65
2021/08/11 11:04:42;;;;;;;7.00;4.57;;;26.10;99.90;;;;;;4987264;28;20449;-64
2021/08/11 11:07:11;;;;;;;5.30;4.80;;;26.10;99.90;;;;;;4986008;28;20505;-64
2021/08/11 11:09:39;;;;;;;4.47;4.07;;;26.20;99.90;;;;;;4984286;28;20802;-64
2021/08/11 11:12:17;;;;;;;4.40;4.00;;;26.30;99.90;;;;;;4987299;28;20440;-64
2021/08/11 11:14:57;;;;;;;4.73;4.33;;;26.40;99.90;;;;;;4984123;28;20551;-65
2021/08/11 11:17:30;;;;;;;5.70;4.30;;;26.40;99.90;;;;;;4983418;28;20437;-64
2021/08/11 11:22:49;;;;;;;5.90;5.30;;;26.70;99.90;;;;;;4987129;28;20829;-65
2021/08/11 11:25:15;;;;;;;5.17;4.67;;;26.80;99.90;;;;;;4984270;28;20468;-65
2021/08/11 11:27:41;;;;;;;5.93;4.53;;;26.90;99.90;;;;;;4988290;28;20987;-64
2021/08/11 11:30:08;;;;;;;4.97;4.57;;;27.00;99.90;;;;;;4985816;28;20449;-64
2021/08/11 11:32:35;;;;;;;5.00;4.50;;;27.10;99.90;;;;;;4987612;28;20196;-65
2021/08/11 11:35:24;;;;;;;4.43;4.03;;;27.10;99.90;;;;;;4985212;28;20464;-65
2021/08/11 11:38:07;;;;;;;4.77;3.93;;;27.10;99.90;;;;;;4985041;28;20441;-65
2021/08/11 11:40:53;;;;;;;5.37;4.50;;;27.10;99.90;;;;;;4982594;28;21010;-65
2021/08/11 11:43:30;;;;;;;5.50;4.40;;;27.10;99.90;;;;;;4984044;28;20453;-64
2021/08/11 11:45:57;;;;;;;5.57;4.10;;;27.20;99.90;;;;;;4985366;28;20499;-64
2021/08/11 11:48:25;;;;;;;5.30;3.87;;;27.30;99.90;;;;;;4983239;28;20429;-65
2021/08/11 11:50:59;;;;;;;4.67;4.27;;;27.30;99.90;;;;;;4986761;28;20417;-65
2021/08/11 11:53:33;;;;;;;6.70;4.70;;;27.50;99.90;;;;;;4983051;28;20491;-65
2021/08/11 11:56:17;;;;;;;4.93;4.43;;;27.70;99.90;;;;;;4983124;28;20488;-65
2021/08/11 11:58:46;;;;;;;4.80;4.40;;;27.70;99.90;;;;;;4985238;28;20499;-65
2021/08/11 12:01:12;;;;;;;7.77;4.63;;;28.00;99.90;;;;;;4981808;28;20456;-65
2021/08/11 12:03:46;;;;;;;9.20;4.40;;;28.40;99.90;;;;;;4982313;28;20440;-65
2021/08/11 12:06:12;;;;;;;4.50;4.10;;;28.70;99.90;;;;;;4984677;28;20465;-65
2021/08/11 12:08:38;;;;;;;5.17;4.77;;;29.20;99.90;;;;;;4982514;28;20923;-74
2021/08/11 12:11:09;;;;;;;4.50;4.10;;;29.80;99.90;;;;;;4983590;28;20841;-70
2021/08/11 12:13:46;;;;;;;4.27;3.87;;;30.30;99.90;;;;;;4984332;28;20485;-68
2021/08/11 12:16:13;;;;;;;5.07;3.97;;;30.80;99.90;;;;;;4982421;28;20453;-66
2021/08/11 12:18:41;;;;;;;4.50;3.93;;;31.50;99.90;;;;;;4979530;28;20435;-71
2021/08/11 12:21:08;;;;;;;4.20;3.50;;;32.00;99.90;;;;;;4983206;28;20403;-71
2021/08/11 12:23:34;;;;;;;3.73;3.33;;;32.30;99.90;;;;;;4966049;28;20433;-71
2021/08/11 12:26:06;;;;;;;4.43;4.03;;;31.90;98.10;;;;;;4986707;28;20480;-71
2021/08/11 12:28:37;;;;;;;4.03;3.63;;;32.10;97.90;;;;;;4984538;28;20181;-70
2021/08/11 12:31:03;;;;;;;5.80;4.37;;;32.20;97.10;;;;;;4983738;28;20832;-66
2021/08/11 12:33:32;;;;;;;4.50;4.10;;;33.20;94.80;;;;;;4985400;28;20483;-66
2021/08/11 12:35:58;;;;;;;4.57;4.17;;;32.80;94.40;;;;;;4982332;28;20682;-65
2021/08/11 12:38:35;;;;;;;4.03;3.73;;;32.40;94.50;;;;;;4980462;28;20540;-66
2021/08/11 12:41:21;;;;;;;5.03;3.60;;;33.50;93.60;;;;;;4982764;28;20524;-65
2021/08/11 12:43:50;;;;;;;3.87;3.47;;;33.60;90.90;;;;;;4982091;28;20425;-65
2021/08/11 12:46:16;;;;;;;5.83;4.00;;;33.10;91.70;;;;;;4984052;28;20469;-68
2021/08/11 12:48:42;;;;;;;4.20;3.87;;;33.40;91.80;;;;;;4983162;28;20546;-68
2021/08/11 12:51:21;;;;;;;3.90;3.60;;;33.50;92.30;;;;;;4982283;28;20392;-67
2021/08/11 12:54:02;;;;;;;6.67;4.80;;;33.30;88.20;;;;;;4985055;28;20414;-68
2021/08/11 12:56:28;;;;;;;5.40;4.70;;;34.10;84.50;;;;;;4982104;28;20929;-70